sensor_id;sensor_type;location;lat;lon;timestamp;P1;durP1;ratioP1;P2;durP2;ratioP2
75285;SDS011;63879;46.064;14.532;2023-05-10T06:01:11;7.57;;;3.65;;
75285;SDS011;63879;46.064;14.532;2023-05-10T06:03:37;5.78;;;3.40;;
75285;SDS011;63879;46.064;14.532;2023-05-10T06:06:02;5.97;;;3.50;;
75285;SDS011;63879;46.064;14.532;2023-05-10T06:08:28;4.95;;;3.22;;
75285;SDS011;63879;46.064;14.532;2023-05-10T06:10:53;4.80;;;3.93;;
75285;SDS011;63879;46.064;14.532;2023-05-10T06:13:18;5.30;;;3.58;;
75285;SDS011;63879;46.064;14.532;2023-05-10T06:15:44;4.83;;;2.83;;
75285;SDS011;63879;46.064;14.532;2023-05-10T06:18:09;4.95;;;3.08;;
75285;SDS011;63879;46.064;14.532;2023-05-10T06:20:34;6.38;;;3.78;;
75285;SDS011;63879;46.064;14.532;2023-05-10T06:23:00;5.43;;;3.65;;
75285;SDS011;63879;46.064;14.532;2023-05-10T06:25:25;7.00;;;3.45;;
75285;SDS011;63879;46.064;14.532;2023-05-10T06:27:50;4.70;;;3.17;;
75285;SDS011;63879;46.064;14.532;2023-05-10T06:30:20;5.15;;;3.58;;
75285;SDS011;63879;46.064;14.532;2023-05-10T06:32:47;6.65;;;4.93;;
75285;SDS011;63879;46.064;14.532;2023-05-10T06:35:13;5.10;;;4.27;;
75285;SDS011;63879;46.064;14.532;2023-05-10T06:37:38;4.93;;;2.70;;
75285;SDS011;63879;46.064;14.532;2023-05-10T06:40:07;8.27;;;3.83;;
75285;SDS011;63879;46.064;14.532;2023-05-10T06:42:32;4.30;;;3.10;;
75285;SDS011;63879;46.064;14.532;2023-05-10T06:44:58;4.63;;;2.83;;
75285;SDS011;63879;46.064;14.532;2023-05-10T06:47:23;6.10;;;3.58;;
75285;SDS011;63879;46.064;14.532;2023-05-10T06:49:49;6.43;;;4.38;;
75285;SDS011;63879;46.064;14.532;2023-05-10T06:52:14;5.23;;;3.03;;
75285;SDS011;63879;46.064;14.532;2023-05-10T06:54:39;4.93;;;4.13;;
75285;SDS011;63879;46.064;14.532;2023-05-10T06:57:05;4.72;;;3.85;;
75285;SDS011;63879;46.064;14.532;2023-05-10T06:59:31;5.32;;;3.47;;
75285;SDS011;63879;46.064;14.532;2023-05-10T07:01:56;5.53;;;3.67;;
75285;SDS011;63879;46.064;14.532;2023-05-10T07:04:22;5.68;;;3.70;;
75285;SDS011;63879;46.064;14.532;2023-05-10T07:06:47;6.28;;;4.55;;
75285;SDS011;63879;46.064;14.532;2023-05-10T07:09:14;9.13;;;3.03;;
75285;SDS011;63879;46.064;14.532;2023-05-10T07:11:40;5.97;;;3.47;;
75285;SDS011;63879;46.064;14.532;2023-05-10T07:14:05;6.03;;;3.73;;
75285;SDS011;63879;46.064;14.532;2023-05-10T07:16:30;5.90;;;3.70;;
75285;SDS011;63879;46.064;14.532;2023-05-10T07:18:56;4.22;;;2.58;;
75285;SDS011;63879;46.064;14.532;2023-05-10T07:21:21;5.30;;;3.28;;
75285;SDS011;63879;46.064;14.532;2023-05-10T07:23:49;3.92;;;3.25;;
75285;SDS011;63879;46.064;14.532;2023-05-10T07:26:14;5.25;;;2.72;;
75285;SDS011;63879;46.064;14.532;2023-05-10T07:28:40;4.10;;;2.70;;
75285;SDS011;63879;46.064;14.532;2023-05-10T07:31:06;4.80;;;3.53;;
75285;SDS011;63879;46.064;14.532;2023-05-10T07:33:34;4.00;;;3.15;;
75285;SDS011;63879;46.064;14.532;2023-05-10T07:35:59;4.55;;;3.60;;
75285;SDS011;63879;46.064;14.532;2023-05-10T07:38:28;4.28;;;3.45;;
75285;SDS011;63879;46.064;14.532;2023-05-10T07:40:53;4.23;;;3.07;;
75285;SDS011;63879;46.064;14.532;2023-05-10T07:43:18;4.93;;;3.50;;
75285;SDS011;63879;46.064;14.532;2023-05-10T07:45:44;6.97;;;3.93;;
75285;SDS011;63879;46.064;14.532;2023-05-10T07:48:09;3.43;;;2.57;;
75285;SDS011;63879;46.064;14.532;2023-05-10T07:50:34;4.38;;;3.22;;
75285;SDS011;63879;46.064;14.532;2023-05-10T07:53:00;3.90;;;2.60;;
75285;SDS011;63879;46.064;14.532;2023-05-10T07:55:25;5.50;;;3.10;;
75285;SDS011;63879;46.064;14.532;2023-05-10T07:57:51;5.10;;;3.67;;
75285;SDS011;63879;46.064;14.532;2023-05-10T08:00:17;5.10;;;3.00;;
75285;SDS011;63879;46.064;14.532;2023-05-10T08:02:43;4.70;;;3.90;;
75285;SDS011;63879;46.064;14.532;2023-05-10T08:05:09;5.07;;;3.55;;
75285;SDS011;63879;46.064;14.532;2023-05-10T08:07:35;4.65;;;3.40;;
75285;SDS011;63879;46.064;14.532;2023-05-10T08:10:01;5.90;;;3.40;;
75285;SDS011;63879;46.064;14.532;2023-05-10T08:12:27;6.60;;;3.85;;
75285;SDS011;63879;46.064;14.532;2023-05-10T08:14:52;6.30;;;3.40;;
75285;SDS011;63879;46.064;14.532;2023-05-10T08:17:18;6.30;;;3.23;;
75285;SDS011;63879;46.064;14.532;2023-05-10T08:19:43;4.77;;;3.73;;
75285;SDS011;63879;46.064;14.532;2023-05-10T08:22:08;4.30;;;3.50;;
75285;SDS011;63879;46.064;14.532;2023-05-10T08:24:34;6.72;;;3.33;;
75285;SDS011;63879;46.064;14.532;2023-05-10T08:27:03;4.88;;;3.63;;
75285;SDS011;63879;46.064;14.532;2023-05-10T08:29:28;6.22;;;3.88;;
75285;SDS011;63879;46.064;14.532;2023-05-10T08:31:54;5.65;;;4.30;;
75285;SDS011;63879;46.064;14.532;2023-05-10T08:34:20;5.93;;;3.63;;
75285;SDS011;63879;46.064;14.532;2023-05-10T08:36:45;4.82;;;3.17;;
75285;SDS011;63879;46.064;14.532;2023-05-10T08:39:10;4.82;;;2.80;;
75285;SDS011;63879;46.064;14.532;2023-05-10T08:41:36;4.70;;;3.20;;
75285;SDS011;63879;46.064;14.532;2023-05-10T08:46:30;5.90;;;2.72;;
75285;SDS011;63879;46.064;14.532;2023-05-10T08:48:56;5.20;;;3.30;;
75285;SDS011;63879;46.064;14.532;2023-05-10T08:51:24;4.35;;;2.58;;
75285;SDS011;63879;46.064;14.532;2023-05-10T08:53:57;6.30;;;3.63;;
75285;SDS011;63879;46.064;14.532;2023-05-10T08:56:22;4.53;;;3.85;;
75285;SDS011;63879;46.064;14.532;2023-05-10T08:58:48;6.05;;;3.47;;
75285;SDS011;63879;46.064;14.532;2023-05-10T09:01:14;5.32;;;3.08;;
75285;SDS011;63879;46.064;14.532;2023-05-10T09:03:41;5.47;;;3.40;;
75285;SDS011;63879;46.064;14.532;2023-05-10T09:06:07;6.50;;;3.78;;
75285;SDS011;63879;46.064;14.532;2023-05-10T09:08:32;3.63;;;3.15;;
75285;SDS011;63879;46.064;14.532;2023-05-10T09:10:58;5.30;;;3.55;;
75285;SDS011;63879;46.064;14.532;2023-05-10T09:13:26;4.65;;;3.70;;
75285;SDS011;63879;46.064;14.532;2023-05-10T09:15:51;4.70;;;3.95;;
75285;SDS011;63879;46.064;14.532;2023-05-10T09:18:17;4.00;;;2.83;;
75285;SDS011;63879;46.064;14.532;2023-05-10T09:23:18;5.00;;;2.70;;
75285;SDS011;63879;46.064;14.532;2023-05-10T09:25:43;5.43;;;3.35;;
75285;SDS011;63879;46.064;14.532;2023-05-10T09:28:08;4.87;;;3.03;;
75285;SDS011;63879;46.064;14.532;2023-05-10T09:30:34;4.78;;;3.38;;
75285;SDS011;63879;46.064;14.532;2023-05-10T09:33:00;3.08;;;2.20;;
75285;SDS011;63879;46.064;14.532;2023-05-10T09:35:27;3.75;;;2.70;;
75285;SDS011;63879;46.064;14.532;2023-05-10T09:37:55;4.60;;;2.65;;
75285;SDS011;63879;46.064;14.532;2023-05-10T09:40:23;3.83;;;2.60;;
75285;SDS011;63879;46.064;14.532;2023-05-10T09:43:08;4.38;;;2.83;;
75285;SDS011;63879;46.064;14.532;2023-05-10T09:45:35;4.20;;;2.63;;
75285;SDS011;63879;46.064;14.532;2023-05-10T09:48:01;3.97;;;2.72;;
75285;SDS011;63879;46.064;14.532;2023-05-10T09:50:28;4.03;;;2.75;;
75285;SDS011;63879;46.064;14.532;2023-05-10T09:52:58;3.75;;;2.33;;
75285;SDS011;63879;46.064;14.532;2023-05-10T09:55:40;4.18;;;2.72;;
75285;SDS011;63879;46.064;14.532;2023-05-10T09:58:11;4.68;;;2.50;;
75285;SDS011;63879;46.064;14.532;2023-05-10T10:00:44;5.43;;;3.28;;
75285;SDS011;63879;46.064;14.532;2023-05-10T10:03:13;4.95;;;4.32;;
75285;SDS011;63879;46.064;14.532;2023-05-10T10:05:40;4.40;;;2.42;;
75285;SDS011;63879;46.064;14.532;2023-05-10T10:08:07;3.60;;;2.83;;
75285;SDS011;63879;46.064;14.532;2023-05-10T10:10:33;6.70;;;3.00;;
75285;SDS011;63879;46.064;14.532;2023-05-10T10:12:59;4.95;;;3.72;;
75285;SDS011;63879;46.064;14.532;2023-05-10T10:15:25;5.90;;;3.00;;
75285;SDS011;63879;46.064;14.532;2023-05-10T10:17:51;4.55;;;3.28;;
75285;SDS011;63879;46.064;14.532;2023-05-10T10:20:17;4.82;;;2.63;;
75285;SDS011;63879;46.064;14.532;2023-05-10T10:22:43;5.50;;;4.38;;
75285;SDS011;63879;46.064;14.532;2023-05-10T10:25:10;5.03;;;3.53;;
75285;SDS011;63879;46.064;14.532;2023-05-10T10:37:53;9.48;;;4.40;;
75285;SDS011;63879;46.064;14.532;2023-05-10T10:40:22;7.35;;;5.25;;
75285;SDS011;63879;46.064;14.532;2023-05-10T10:42:51;5.60;;;3.72;;
75285;SDS011;63879;46.064;14.532;2023-05-10T10:45:18;7.30;;;5.15;;
75285;SDS011;63879;46.064;14.532;2023-05-10T10:47:44;6.10;;;4.22;;
75285;SDS011;63879;46.064;14.532;2023-05-10T10:50:10;6.38;;;4.50;;
75285;SDS011;63879;46.064;14.532;2023-05-10T10:52:41;6.55;;;5.80;;
75285;SDS011;63879;46.064;14.532;2023-05-10T10:55:14;6.90;;;4.90;;
75285;SDS011;63879;46.064;14.532;2023-05-10T10:57:47;7.53;;;5.38;;
75285;SDS011;63879;46.064;14.532;2023-05-10T11:02:52;8.68;;;5.38;;
75285;SDS011;63879;46.064;14.532;2023-05-10T11:05:34;8.07;;;5.97;;
75285;SDS011;63879;46.064;14.532;2023-05-10T11:18:59;6.93;;;4.43;;
75285;SDS011;63879;46.064;14.532;2023-05-10T11:21:27;8.10;;;5.25;;
75285;SDS011;63879;46.064;14.532;2023-05-10T11:23:59;8.10;;;5.50;;
75285;SDS011;63879;46.064;14.532;2023-05-10T11:26:34;8.05;;;4.35;;
75285;SDS011;63879;46.064;14.532;2023-05-10T11:29:00;8.40;;;6.43;;
75285;SDS011;63879;46.064;14.532;2023-05-10T11:31:26;7.85;;;5.07;;
75285;SDS011;63879;46.064;14.532;2023-05-10T11:33:58;6.55;;;4.80;;
75285;SDS011;63879;46.064;14.532;2023-05-10T11:36:25;8.82;;;5.63;;
75285;SDS011;63879;46.064;14.532;2023-05-10T11:38:52;10.45;;;5.65;;
75285;SDS011;63879;46.064;14.532;2023-05-10T11:41:18;6.55;;;4.78;;
75285;SDS011;63879;46.064;14.532;2023-05-10T11:43:47;7.70;;;5.72;;
75285;SDS011;63879;46.064;14.532;2023-05-10T11:46:15;7.70;;;6.75;;
75285;SDS011;63879;46.064;14.532;2023-05-10T11:48:42;8.40;;;5.03;;
75285;SDS011;63879;46.064;14.532;2023-05-10T11:51:07;7.28;;;5.15;;
75285;SDS011;63879;46.064;14.532;2023-05-10T11:53:33;8.98;;;4.97;;
75285;SDS011;63879;46.064;14.532;2023-05-10T11:56:03;7.50;;;5.35;;
75285;SDS011;63879;46.064;14.532;2023-05-10T11:58:30;7.55;;;5.10;;
75285;SDS011;63879;46.064;14.532;2023-05-10T12:00:56;7.57;;;4.82;;
75285;SDS011;63879;46.064;14.532;2023-05-10T12:03:21;9.50;;;5.63;;
75285;SDS011;63879;46.064;14.532;2023-05-10T12:05:47;7.72;;;6.05;;
75285;SDS011;63879;46.064;14.532;2023-05-10T12:08:16;8.25;;;4.85;;
75285;SDS011;63879;46.064;14.532;2023-05-10T12:10:45;7.20;;;5.65;;
75285;SDS011;63879;46.064;14.532;2023-05-10T12:13:11;6.97;;;4.90;;
75285;SDS011;63879;46.064;14.532;2023-05-10T12:15:40;9.15;;;5.30;;
75285;SDS011;63879;46.064;14.532;2023-05-10T12:18:10;8.98;;;5.95;;
75285;SDS011;63879;46.064;14.532;2023-05-10T12:20:37;8.68;;;6.75;;
75285;SDS011;63879;46.064;14.532;2023-05-10T12:23:09;8.05;;;6.00;;
75285;SDS011;63879;46.064;14.532;2023-05-10T12:25:35;7.97;;;5.15;;
75285;SDS011;63879;46.064;14.532;2023-05-10T12:28:05;7.03;;;5.20;;
75285;SDS011;63879;46.064;14.532;2023-05-10T12:30:34;8.65;;;5.18;;
75285;SDS011;63879;46.064;14.532;2023-05-10T12:33:09;7.97;;;5.38;;
75285;SDS011;63879;46.064;14.532;2023-05-10T12:35:49;7.72;;;5.35;;
75285;SDS011;63879;46.064;14.532;2023-05-10T12:41:01;7.15;;;5.50;;
75285;SDS011;63879;46.064;14.532;2023-05-10T12:43:28;8.45;;;5.57;;
75285;SDS011;63879;46.064;14.532;2023-05-10T12:45:53;6.88;;;6.13;;
75285;SDS011;63879;46.064;14.532;2023-05-10T12:48:18;9.80;;;6.07;;
75285;SDS011;63879;46.064;14.532;2023-05-10T12:50:45;6.32;;;5.55;;
75285;SDS011;63879;46.064;14.532;2023-05-10T12:53:11;7.28;;;5.00;;
75285;SDS011;63879;46.064;14.532;2023-05-10T12:55:36;6.85;;;5.93;;
75285;SDS011;63879;46.064;14.532;2023-05-10T12:58:01;9.15;;;6.63;;
75285;SDS011;63879;46.064;14.532;2023-05-10T13:00:27;7.53;;;4.93;;
75285;SDS011;63879;46.064;14.532;2023-05-10T13:02:52;7.73;;;5.63;;
75285;SDS011;63879;46.064;14.532;2023-05-10T13:05:18;7.28;;;5.30;;
75285;SDS011;63879;46.064;14.532;2023-05-10T13:07:43;10.00;;;5.93;;
75285;SDS011;63879;46.064;14.532;2023-05-10T13:10:09;7.50;;;5.80;;
75285;SDS011;63879;46.064;14.532;2023-05-10T13:12:35;9.23;;;5.95;;
75285;SDS011;63879;46.064;14.532;2023-05-10T13:15:00;9.75;;;5.53;;
75285;SDS011;63879;46.064;14.532;2023-05-10T13:17:26;7.88;;;5.57;;
75285;SDS011;63879;46.064;14.532;2023-05-10T13:19:51;8.33;;;6.60;;
75285;SDS011;63879;46.064;14.532;2023-05-10T13:22:16;8.00;;;5.30;;
75285;SDS011;63879;46.064;14.532;2023-05-10T13:27:17;8.60;;;6.43;;
75285;SDS011;63879;46.064;14.532;2023-05-10T13:29:42;7.10;;;5.33;;
75285;SDS011;63879;46.064;14.532;2023-05-10T13:32:08;12.77;;;5.90;;
75285;SDS011;63879;46.064;14.532;2023-05-10T13:34:33;7.78;;;5.15;;
75285;SDS011;63879;46.064;14.532;2023-05-10T13:37:00;6.45;;;5.38;;
75285;SDS011;63879;46.064;14.532;2023-05-10T13:39:26;7.93;;;5.97;;
75285;SDS011;63879;46.064;14.532;2023-05-10T13:41:51;6.38;;;4.55;;
75285;SDS011;63879;46.064;14.532;2023-05-10T13:44:22;8.55;;;7.00;;
75285;SDS011;63879;46.064;14.532;2023-05-10T13:46:48;11.13;;;6.68;;
75285;SDS011;63879;46.064;14.532;2023-05-10T13:49:14;7.97;;;5.82;;
75285;SDS011;63879;46.064;14.532;2023-05-10T13:51:40;9.27;;;6.22;;
75285;SDS011;63879;46.064;14.532;2023-05-10T13:56:41;9.85;;;6.03;;
75285;SDS011;63879;46.064;14.532;2023-05-10T13:59:07;6.13;;;5.28;;
75285;SDS011;63879;46.064;14.532;2023-05-10T14:01:32;8.85;;;6.15;;
75285;SDS011;63879;46.064;14.532;2023-05-10T14:03:58;11.75;;;5.85;;
75285;SDS011;63879;46.064;14.532;2023-05-10T14:06:24;8.88;;;5.65;;
75285;SDS011;63879;46.064;14.532;2023-05-10T14:08:53;9.03;;;6.30;;
75285;SDS011;63879;46.064;14.532;2023-05-10T14:11:34;11.27;;;7.40;;
75285;SDS011;63879;46.064;14.532;2023-05-10T14:14:13;13.75;;;7.97;;
75285;SDS011;63879;46.064;14.532;2023-05-10T14:32:47;7.40;;;4.72;;
75285;SDS011;63879;46.064;14.532;2023-05-10T14:35:13;10.73;;;7.27;;
75285;SDS011;63879;46.064;14.532;2023-05-10T14:37:38;10.37;;;5.53;;
75285;SDS011;63879;46.064;14.532;2023-05-10T14:40:04;10.65;;;6.78;;
75285;SDS011;63879;46.064;14.532;2023-05-10T14:42:31;9.82;;;6.25;;
75285;SDS011;63879;46.064;14.532;2023-05-10T14:45:02;12.85;;;7.80;;
75285;SDS011;63879;46.064;14.532;2023-05-10T14:47:28;8.57;;;6.25;;
75285;SDS011;63879;46.064;14.532;2023-05-10T14:49:53;8.30;;;5.93;;
75285;SDS011;63879;46.064;14.532;2023-05-10T14:52:19;10.20;;;7.88;;
75285;SDS011;63879;46.064;14.532;2023-05-10T14:54:44;9.30;;;6.47;;
75285;SDS011;63879;46.064;14.532;2023-05-10T14:57:10;9.93;;;6.78;;
75285;SDS011;63879;46.064;14.532;2023-05-10T14:59:35;9.32;;;6.53;;
75285;SDS011;63879;46.064;14.532;2023-05-10T15:02:00;8.87;;;6.43;;
75285;SDS011;63879;46.064;14.532;2023-05-10T15:04:26;7.47;;;6.00;;
75285;SDS011;63879;46.064;14.532;2023-05-10T15:06:52;8.85;;;6.18;;
75285;SDS011;63879;46.064;14.532;2023-05-10T15:09:17;8.47;;;5.93;;
75285;SDS011;63879;46.064;14.532;2023-05-10T15:11:42;9.83;;;6.47;;
75285;SDS011;63879;46.064;14.532;2023-05-10T15:14:14;7.88;;;5.65;;
75285;SDS011;63879;46.064;14.532;2023-05-10T15:16:40;7.75;;;6.60;;
75285;SDS011;63879;46.064;14.532;2023-05-10T15:19:05;9.43;;;6.13;;
75285;SDS011;63879;46.064;14.532;2023-05-10T15:21:30;6.80;;;5.43;;
75285;SDS011;63879;46.064;14.532;2023-05-10T15:24:00;8.93;;;6.25;;
75285;SDS011;63879;46.064;14.532;2023-05-10T15:26:25;8.02;;;5.50;;
75285;SDS011;63879;46.064;14.532;2023-05-10T15:28:51;7.00;;;5.65;;
75285;SDS011;63879;46.064;14.532;2023-05-10T15:31:17;6.55;;;4.88;;
75285;SDS011;63879;46.064;14.532;2023-05-10T15:33:42;7.83;;;5.60;;
75285;SDS011;63879;46.064;14.532;2023-05-10T15:36:08;8.10;;;5.23;;
75285;SDS011;63879;46.064;14.532;2023-05-10T15:43:43;8.95;;;6.07;;
75285;SDS011;63879;46.064;14.532;2023-05-10T15:46:09;8.45;;;5.57;;
75285;SDS011;63879;46.064;14.532;2023-05-10T15:48:34;7.43;;;4.87;;
75285;SDS011;63879;46.064;14.532;2023-05-10T15:51:00;8.00;;;5.28;;
75285;SDS011;63879;46.064;14.532;2023-05-10T15:53:28;8.30;;;5.78;;
75285;SDS011;63879;46.064;14.532;2023-05-10T15:55:54;8.27;;;5.87;;
75285;SDS011;63879;46.064;14.532;2023-05-10T15:58:19;6.87;;;3.77;;
75285;SDS011;63879;46.064;14.532;2023-05-10T16:00:44;8.85;;;5.38;;
75285;SDS011;63879;46.064;14.532;2023-05-10T16:03:10;6.82;;;5.15;;
75285;SDS011;63879;46.064;14.532;2023-05-10T16:05:35;8.53;;;4.70;;
75285;SDS011;63879;46.064;14.532;2023-05-10T16:08:01;7.82;;;4.90;;
75285;SDS011;63879;46.064;14.532;2023-05-10T16:10:26;7.13;;;4.80;;
75285;SDS011;63879;46.064;14.532;2023-05-10T16:12:52;8.48;;;6.10;;
75285;SDS011;63879;46.064;14.532;2023-05-10T16:18:40;7.38;;;5.63;;
75285;SDS011;63879;46.064;14.532;2023-05-10T16:23:40;7.63;;;5.35;;
75285;SDS011;63879;46.064;14.532;2023-05-10T16:26:07;6.95;;;5.35;;
75285;SDS011;63879;46.064;14.532;2023-05-10T16:28:32;8.32;;;4.90;;
75285;SDS011;63879;46.064;14.532;2023-05-10T16:30:58;7.57;;;4.78;;
75285;SDS011;63879;46.064;14.532;2023-05-10T16:33:23;6.60;;;4.60;;
75285;SDS011;63879;46.064;14.532;2023-05-10T16:35:49;8.50;;;6.45;;
75285;SDS011;63879;46.064;14.532;2023-05-10T16:38:23;7.32;;;5.70;;
75285;SDS011;63879;46.064;14.532;2023-05-10T16:40:48;7.63;;;4.95;;
75285;SDS011;63879;46.064;14.532;2023-05-10T16:43:14;8.70;;;6.63;;
75285;SDS011;63879;46.064;14.532;2023-05-10T16:45:39;8.30;;;5.57;;
75285;SDS011;63879;46.064;14.532;2023-05-10T16:48:06;10.25;;;6.75;;
75285;SDS011;63879;46.064;14.532;2023-05-10T16:50:31;7.68;;;5.55;;
75285;SDS011;63879;46.064;14.532;2023-05-10T16:53:02;9.32;;;7.28;;
75285;SDS011;63879;46.064;14.532;2023-05-10T16:55:28;9.35;;;6.32;;
75285;SDS011;63879;46.064;14.532;2023-05-10T17:00:28;9.40;;;5.82;;
75285;SDS011;63879;46.064;14.532;2023-05-10T17:02:53;8.82;;;5.55;;
75285;SDS011;63879;46.064;14.532;2023-05-10T17:07:54;7.82;;;4.95;;
75285;SDS011;63879;46.064;14.532;2023-05-10T17:10:20;8.82;;;6.57;;
75285;SDS011;63879;46.064;14.532;2023-05-10T17:12:45;9.23;;;6.57;;
75285;SDS011;63879;46.064;14.532;2023-05-10T17:15:11;19.88;;;12.88;;
75285;SDS011;63879;46.064;14.532;2023-05-10T17:20:10;9.90;;;6.97;;
75285;SDS011;63879;46.064;14.532;2023-05-10T17:22:36;9.25;;;7.60;;
75285;SDS011;63879;46.064;14.532;2023-05-10T17:25:01;11.38;;;7.82;;
75285;SDS011;63879;46.064;14.532;2023-05-10T17:27:27;11.80;;;7.88;;
75285;SDS011;63879;46.064;14.532;2023-05-10T17:29:57;10.68;;;7.78;;
75285;SDS011;63879;46.064;14.532;2023-05-10T17:32:23;13.43;;;8.13;;
75285;SDS011;63879;46.064;14.532;2023-05-10T17:42:34;13.73;;;9.05;;
75285;SDS011;63879;46.064;14.532;2023-05-10T17:45:00;14.60;;;9.43;;
75285;SDS011;63879;46.064;14.532;2023-05-10T17:50:00;10.88;;;7.30;;
75285;SDS011;63879;46.064;14.532;2023-05-10T17:52:26;9.90;;;8.10;;
75285;SDS011;63879;46.064;14.532;2023-05-10T17:54:53;11.45;;;7.60;;
75285;SDS011;63879;46.064;14.532;2023-05-10T17:57:18;11.57;;;7.88;;
75285;SDS011;63879;46.064;14.532;2023-05-10T17:59:44;11.00;;;7.85;;
75285;SDS011;63879;46.064;14.532;2023-05-10T18:02:10;11.52;;;8.10;;
75285;SDS011;63879;46.064;14.532;2023-05-10T18:04:38;11.73;;;7.83;;
75285;SDS011;63879;46.064;14.532;2023-05-10T18:07:04;15.68;;;10.02;;
75285;SDS011;63879;46.064;14.532;2023-05-10T18:09:29;13.57;;;9.60;;
75285;SDS011;63879;46.064;14.532;2023-05-10T18:11:55;16.08;;;10.05;;
75285;SDS011;63879;46.064;14.532;2023-05-10T18:14:21;13.87;;;8.67;;
75285;SDS011;63879;46.064;14.532;2023-05-10T18:16:52;15.30;;;8.90;;
75285;SDS011;63879;46.064;14.532;2023-05-10T18:19:18;17.70;;;10.65;;
75285;SDS011;63879;46.064;14.532;2023-05-10T18:21:44;16.85;;;10.38;;
75285;SDS011;63879;46.064;14.532;2023-05-10T18:24:09;16.67;;;10.73;;
75285;SDS011;63879;46.064;14.532;2023-05-10T18:26:35;15.85;;;9.32;;
75285;SDS011;63879;46.064;14.532;2023-05-10T18:29:00;14.43;;;9.30;;
75285;SDS011;63879;46.064;14.532;2023-05-10T18:31:26;17.13;;;11.05;;
75285;SDS011;63879;46.064;14.532;2023-05-10T18:33:51;20.30;;;10.02;;
75285;SDS011;63879;46.064;14.532;2023-05-10T18:36:18;15.93;;;10.80;;
75285;SDS011;63879;46.064;14.532;2023-05-10T18:38:44;17.35;;;10.90;;
75285;SDS011;63879;46.064;14.532;2023-05-10T18:41:09;15.73;;;10.10;;
75285;SDS011;63879;46.064;14.532;2023-05-10T18:46:12;19.20;;;10.63;;
75285;SDS011;63879;46.064;14.532;2023-05-10T18:53:48;19.83;;;11.68;;
75285;SDS011;63879;46.064;14.532;2023-05-10T18:56:13;17.93;;;11.03;;
75285;SDS011;63879;46.064;14.532;2023-05-10T19:02:00;20.55;;;11.60;;
75285;SDS011;63879;46.064;14.532;2023-05-10T19:04:26;18.00;;;11.77;;
75285;SDS011;63879;46.064;14.532;2023-05-10T19:06:52;17.92;;;10.90;;
75285;SDS011;63879;46.064;14.532;2023-05-10T19:09:17;16.63;;;11.20;;
75285;SDS011;63879;46.064;14.532;2023-05-10T19:11:45;22.50;;;12.40;;
75285;SDS011;63879;46.064;14.532;2023-05-10T19:14:10;16.13;;;11.02;;
75285;SDS011;63879;46.064;14.532;2023-05-10T19:16:36;17.17;;;11.82;;
75285;SDS011;63879;46.064;14.532;2023-05-10T19:19:01;17.85;;;10.38;;
75285;SDS011;63879;46.064;14.532;2023-05-10T19:21:27;18.27;;;10.47;;
75285;SDS011;63879;46.064;14.532;2023-05-10T19:23:52;18.98;;;10.85;;
75285;SDS011;63879;46.064;14.532;2023-05-10T19:26:18;17.73;;;10.20;;
75285;SDS011;63879;46.064;14.532;2023-05-10T19:28:44;17.43;;;10.60;;
75285;SDS011;63879;46.064;14.532;2023-05-10T19:31:09;18.73;;;10.50;;
75285;SDS011;63879;46.064;14.532;2023-05-10T19:33:35;18.23;;;12.10;;
75285;SDS011;63879;46.064;14.532;2023-05-10T19:36:01;17.13;;;11.50;;
75285;SDS011;63879;46.064;14.532;2023-05-10T19:38:26;18.70;;;11.57;;
75285;SDS011;63879;46.064;14.532;2023-05-10T19:40:53;18.85;;;11.75;;
75285;SDS011;63879;46.064;14.532;2023-05-10T19:43:23;19.02;;;12.25;;
75285;SDS011;63879;46.064;14.532;2023-05-10T19:45:51;22.95;;;12.98;;
75285;SDS011;63879;46.064;14.532;2023-05-10T19:48:17;18.48;;;11.45;;
75285;SDS011;63879;46.064;14.532;2023-05-10T19:50:42;25.90;;;13.93;;
75285;SDS011;63879;46.064;14.532;2023-05-10T19:53:08;19.85;;;12.98;;
75285;SDS011;63879;46.064;14.532;2023-05-10T19:55:33;21.25;;;13.27;;
75285;SDS011;63879;46.064;14.532;2023-05-10T19:58:00;17.55;;;11.63;;
75285;SDS011;63879;46.064;14.532;2023-05-10T20:00:27;23.65;;;13.75;;
75285;SDS011;63879;46.064;14.532;2023-05-10T20:02:55;15.05;;;9.80;;
75285;SDS011;63879;46.064;14.532;2023-05-10T20:05:21;19.17;;;11.07;;
75285;SDS011;63879;46.064;14.532;2023-05-10T20:07:47;20.25;;;11.65;;
75285;SDS011;63879;46.064;14.532;2023-05-10T20:10:12;21.48;;;11.50;;
75285;SDS011;63879;46.064;14.532;2023-05-10T20:12:39;16.92;;;10.77;;
75285;SDS011;63879;46.064;14.532;2023-05-10T20:15:05;17.27;;;12.15;;
75285;SDS011;63879;46.064;14.532;2023-05-10T20:17:34;16.73;;;10.27;;
75285;SDS011;63879;46.064;14.532;2023-05-10T20:20:02;18.92;;;11.43;;
75285;SDS011;63879;46.064;14.532;2023-05-10T20:22:28;18.15;;;10.85;;
75285;SDS011;63879;46.064;14.532;2023-05-10T20:24:58;21.13;;;12.00;;
75285;SDS011;63879;46.064;14.532;2023-05-10T20:27:24;18.75;;;11.00;;
75285;SDS011;63879;46.064;14.532;2023-05-10T20:29:49;18.80;;;11.82;;
75285;SDS011;63879;46.064;14.532;2023-05-10T20:32:14;19.05;;;11.70;;
75285;SDS011;63879;46.064;14.532;2023-05-10T20:34:40;17.13;;;11.68;;
75285;SDS011;63879;46.064;14.532;2023-05-10T20:37:05;15.35;;;10.30;;
75285;SDS011;63879;46.064;14.532;2023-05-10T20:39:32;16.23;;;10.57;;
75285;SDS011;63879;46.064;14.532;2023-05-10T20:42:03;15.75;;;10.32;;
75285;SDS011;63879;46.064;14.532;2023-05-10T20:44:28;15.25;;;11.02;;
75285;SDS011;63879;46.064;14.532;2023-05-10T20:46:53;13.77;;;9.10;;
75285;SDS011;63879;46.064;14.532;2023-05-10T20:49:19;13.23;;;8.32;;
75285;SDS011;63879;46.064;14.532;2023-05-10T20:51:44;12.53;;;7.87;;
75285;SDS011;63879;46.064;14.532;2023-05-10T20:54:10;12.05;;;7.78;;
75285;SDS011;63879;46.064;14.532;2023-05-10T20:56:35;10.80;;;7.05;;
75285;SDS011;63879;46.064;14.532;2023-05-10T20:59:00;9.98;;;7.13;;
